createdAt,value
2023-10-23T00:02:01.566Z,100409.84
2023-10-23T00:04:29.352Z,100414.13
2023-10-23T00:06:57.064Z,100418.19
2023-10-23T00:09:24.726Z,100414.84
2023-10-23T00:11:52.492Z,100415.22
2023-10-23T00:14:20.188Z,100420.63
2023-10-23T00:16:47.891Z,100425.78
2023-10-23T00:19:17.099Z,100430.22
2023-10-23T00:21:45.765Z,100426.41
2023-10-23T00:24:13.841Z,100431.31
2023-10-23T00:26:41.578Z,100429.00
2023-10-23T00:29:09.542Z,100429.59
2023-10-23T00:31:37.266Z,100432.06
2023-10-23T00:34:05.083Z,100435.25
2023-10-23T00:36:34.244Z,100437.34
2023-10-23T00:39:01.913Z,100434.00
2023-10-23T00:41:29.601Z,100430.34
2023-10-23T00:43:57.302Z,100428.50
2023-10-23T00:46:27.562Z,100428.25
2023-10-23T00:48:55.327Z,100425.31
2023-10-23T00:51:23.569Z,100432.81
2023-10-23T00:53:53.858Z,100433.44
2023-10-23T00:56:21.721Z,100431.31
2023-10-23T00:58:49.555Z,100435.63
2023-10-23T01:01:17.564Z,100434.03
2023-10-23T01:03:45.846Z,100434.66
2023-10-23T01:06:14.928Z,100441.78
2023-10-23T01:08:43.974Z,100436.56
2023-10-23T01:11:13.099Z,100435.00
2023-10-23T01:13:41.012Z,100433.00
2023-10-23T01:16:08.755Z,100432.38
2023-10-23T01:18:36.486Z,100436.56
2023-10-23T01:21:04.497Z,100434.97
2023-10-23T01:23:36.772Z,100439.63
2023-10-23T01:26:05.947Z,100437.03
2023-10-23T01:28:33.600Z,100430.50
2023-10-23T01:31:01.412Z,100431.72
2023-10-23T01:33:30.975Z,100428.81
2023-10-23T01:35:58.724Z,100386.31
2023-10-23T01:38:26.645Z,100433.06
2023-10-23T01:40:54.772Z,100446.75
2023-10-23T01:43:23.842Z,100440.59
2023-10-23T01:45:51.585Z,100431.50
2023-10-23T01:48:19.315Z,100432.81
2023-10-23T01:50:47.109Z,100440.22
2023-10-23T01:53:14.809Z,100442.34
2023-10-23T01:55:42.492Z,100448.28
2023-10-23T01:58:10.202Z,100441.50
2023-10-23T02:00:39.257Z,100440.16
2023-10-23T02:03:07.093Z,100433.13
2023-10-23T02:05:35.072Z,100440.28
2023-10-23T02:08:02.798Z,100443.41
2023-10-23T02:10:31.163Z,100439.44
2023-10-23T02:12:58.913Z,100439.03
2023-10-23T02:15:26.648Z,100435.22
2023-10-23T02:17:56.156Z,100438.25
2023-10-23T02:20:28.418Z,100438.91
2023-10-23T02:22:56.112Z,100437.63
2023-10-23T02:25:23.952Z,100442.69
2023-10-23T02:27:51.654Z,100443.78
2023-10-23T02:30:19.576Z,100449.25
2023-10-23T02:32:47.312Z,100450.63
2023-10-23T02:35:16.740Z,100459.69
2023-10-23T02:37:44.432Z,100456.84
2023-10-23T02:40:13.562Z,100463.09
2023-10-23T02:42:41.557Z,100463.53
2023-10-23T02:45:10.357Z,100464.41
2023-10-23T02:47:38.661Z,100431.78
2023-10-23T02:50:07.235Z,100455.72
2023-10-23T02:52:36.258Z,100452.06
2023-10-23T02:55:04.023Z,100444.53
2023-10-23T02:57:31.913Z,100452.53
2023-10-23T02:59:59.811Z,100460.50
2023-10-23T03:02:27.842Z,100465.88
2023-10-23T03:04:55.608Z,100464.06
2023-10-23T03:07:23.290Z,100469.28
2023-10-23T03:09:53.080Z,100471.34
2023-10-23T03:12:21.442Z,100467.72
2023-10-23T03:14:49.154Z,100466.59
2023-10-23T03:17:16.866Z,100460.25
2023-10-23T03:19:44.491Z,100460.88
2023-10-23T03:22:12.197Z,100472.78
2023-10-23T03:24:40.754Z,100482.16
2023-10-23T03:27:09.826Z,100482.28
2023-10-23T03:29:37.744Z,100486.13
2023-10-23T03:32:05.843Z,100475.56
2023-10-23T03:34:33.873Z,100475.47
2023-10-23T03:37:02.040Z,100474.91
2023-10-23T03:39:29.894Z,100474.53
2023-10-23T03:41:57.552Z,100479.63
2023-10-23T03:44:26.632Z,100481.81
2023-10-23T03:46:55.013Z,100466.47
2023-10-23T03:49:22.773Z,100470.50
2023-10-23T03:51:50.652Z,100467.16
2023-10-23T03:54:18.320Z,100462.75
2023-10-23T03:56:45.985Z,100472.34
2023-10-23T03:59:13.737Z,100475.13
2023-10-23T04:01:42.783Z,100474.94
2023-10-23T04:04:11.430Z,100472.34
2023-10-23T04:06:40.398Z,100475.50
2023-10-23T04:09:08.534Z,100471.19
2023-10-23T04:11:36.474Z,100472.63
2023-10-23T04:14:05.379Z,100479.22
2023-10-23T04:16:33.316Z,100476.47
2023-10-23T04:19:02.488Z,100479.69
2023-10-23T04:21:30.215Z,100477.09
2023-10-23T04:23:57.920Z,100475.41
2023-10-23T04:26:25.565Z,100479.78
2023-10-23T04:28:53.300Z,100482.38
2023-10-23T04:31:21.037Z,100484.28
2023-10-23T04:33:48.747Z,100488.16
2023-10-23T04:36:17.861Z,100492.56
2023-10-23T04:38:45.525Z,100498.47
2023-10-23T04:41:13.287Z,100492.66
2023-10-23T04:43:41.293Z,100483.72
2023-10-23T04:46:09.100Z,100492.34
2023-10-23T04:48:37.038Z,100491.00
2023-10-23T04:51:05.354Z,100486.22
2023-10-23T04:53:34.527Z,100492.81
2023-10-23T04:56:06.417Z,100482.09
2023-10-23T04:58:34.346Z,100489.47
2023-10-23T05:01:02.176Z,100491.00
2023-10-23T05:03:31.120Z,100491.97
2023-10-23T05:05:59.012Z,100494.38
2023-10-23T05:08:26.717Z,100495.88
2023-10-23T05:11:06.121Z,100492.34
2023-10-23T05:13:33.780Z,100495.59
2023-10-23T05:16:05.739Z,100500.78
2023-10-23T05:18:34.134Z,100493.50
2023-10-23T05:21:07.908Z,100488.16
2023-10-23T05:23:35.744Z,100487.97
2023-10-23T05:26:04.815Z,100493.31
2023-10-23T05:28:32.883Z,100492.34
2023-10-23T05:31:00.616Z,100491.88
2023-10-23T05:33:28.312Z,100495.53
2023-10-23T05:36:03.027Z,100489.00
2023-10-23T05:38:30.719Z,100497.75
2023-10-23T05:40:58.629Z,100496.03
2023-10-23T05:43:28.547Z,100491.69
2023-10-23T05:45:56.374Z,100497.84
2023-10-23T05:48:24.456Z,100499.47
2023-10-23T05:50:59.618Z,100492.25
2023-10-23T05:53:27.616Z,100501.56
2023-10-23T05:55:55.449Z,100503.22
2023-10-23T05:58:23.530Z,100434.81
2023-10-23T06:00:52.630Z,100498.53
2023-10-23T06:03:20.389Z,100501.97
2023-10-23T06:05:48.190Z,100499.38
2023-10-23T06:08:15.900Z,100506.31
2023-10-23T06:10:44.482Z,100503.41
2023-10-23T06:13:12.712Z,100502.75
2023-10-23T06:15:40.698Z,100505.81
2023-10-23T06:18:10.275Z,100481.47
2023-10-23T06:20:37.963Z,100513.94
2023-10-23T06:23:05.842Z,100510.50
2023-10-23T06:25:33.568Z,100378.16
2023-10-23T06:28:01.782Z,100491.50
2023-10-23T06:30:29.648Z,100514.81
2023-10-23T06:32:57.437Z,100435.19
2023-10-23T06:35:26.602Z,100505.91
2023-10-23T06:37:54.338Z,100510.31
2023-10-23T06:40:22.067Z,100514.81
2023-10-23T06:42:49.846Z,100501.22
2023-10-23T06:45:17.684Z,100503.03
2023-10-23T06:47:49.752Z,100508.50
2023-10-23T06:50:17.693Z,100518.28
2023-10-23T06:52:47.296Z,100514.91
2023-10-23T06:55:15.074Z,100503.72
2023-10-23T06:57:42.728Z,100512.53
2023-10-23T07:00:12.150Z,100466.09
2023-10-23T07:02:39.920Z,100515.13
2023-10-23T07:05:08.318Z,100511.47
2023-10-23T07:07:36.068Z,100511.28
2023-10-23T07:10:06.576Z,100501.00
2023-10-23T07:12:34.270Z,100503.41
2023-10-23T07:15:03.955Z,100509.09
2023-10-23T07:17:31.880Z,100515.13
2023-10-23T07:19:59.793Z,100507.16
2023-10-23T07:22:27.516Z,100524.50
2023-10-23T07:24:56.670Z,100523.63
2023-10-23T07:27:27.269Z,100519.94
2023-10-23T07:29:56.971Z,100511.44
2023-10-23T07:32:24.726Z,100518.50
2023-10-23T07:34:52.543Z,100512.19
2023-10-23T07:37:20.276Z,100520.41
2023-10-23T07:39:48.900Z,100515.91
2023-10-23T07:42:16.855Z,100522.28
2023-10-23T07:44:45.980Z,100503.88
2023-10-23T07:47:14.587Z,100520.56
2023-10-23T07:49:42.346Z,100518.88
2023-10-23T07:52:10.257Z,100516.41
2023-10-23T07:54:38.021Z,100513.25
2023-10-23T07:57:06.481Z,100516.91
2023-10-23T07:59:34.174Z,100514.41
2023-10-23T08:02:04.258Z,100481.00
2023-10-23T08:04:33.254Z,100517.19
2023-10-23T08:07:01.955Z,100513.72
2023-10-23T08:09:29.738Z,100512.31
2023-10-23T08:11:57.481Z,100513.56
2023-10-23T08:14:25.213Z,100519.03
2023-10-23T08:16:53.773Z,100521.91
2023-10-23T08:19:23.016Z,100523.06
2023-10-23T08:21:50.810Z,100475.16
2023-10-23T08:24:18.643Z,100517.47
2023-10-23T08:26:46.340Z,100515.94
2023-10-23T08:29:17.053Z,100493.69
2023-10-23T08:31:44.971Z,100514.84
2023-10-23T08:34:12.764Z,100510.50
2023-10-23T08:36:41.998Z,100503.50
2023-10-23T08:39:09.790Z,100500.22
2023-10-23T08:41:42.278Z,100499.63
2023-10-23T08:44:11.536Z,100497.28
2023-10-23T08:46:42.101Z,100321.56
2023-10-23T08:49:10.171Z,100496.59
2023-10-23T08:51:43.542Z,100428.34
2023-10-23T08:54:18.565Z,100493.91
2023-10-23T08:56:47.061Z,100489.47
2023-10-23T08:59:15.538Z,100493.03
2023-10-23T09:01:43.665Z,100490.06
2023-10-23T09:04:13.269Z,100492.88
2023-10-23T09:06:43.618Z,100494.81
2023-10-23T09:09:12.047Z,100490.97
2023-10-23T09:11:40.894Z,100495.47
2023-10-23T09:14:08.617Z,100494.97
2023-10-23T09:16:37.257Z,100428.00
2023-10-23T09:19:05.775Z,100497.69
2023-10-23T09:21:33.761Z,100493.75
2023-10-23T09:24:04.827Z,100495.16
2023-10-23T09:26:32.940Z,100487.00
2023-10-23T09:29:00.623Z,100481.41
2023-10-23T09:31:29.033Z,100483.63
2023-10-23T09:33:57.034Z,100481.00
2023-10-23T09:36:28.159Z,100482.50
2023-10-23T09:39:00.177Z,100473.31
2023-10-23T09:41:31.451Z,100520.84
2023-10-23T09:44:01.738Z,100487.53
2023-10-23T09:46:30.870Z,100479.84
2023-10-23T09:49:01.467Z,100477.47
2023-10-23T09:51:31.692Z,100474.75
2023-10-23T09:54:01.017Z,100472.59
2023-10-23T09:56:33.415Z,100477.78
2023-10-23T09:59:02.695Z,100471.72
2023-10-23T10:01:42.183Z,100474.25
2023-10-23T10:04:15.224Z,100470.00
2023-10-23T10:06:48.176Z,100470.03
2023-10-23T10:09:16.918Z,100468.19
2023-10-23T10:11:46.830Z,100468.88
2023-10-23T10:14:15.760Z,100454.47
2023-10-23T10:16:43.999Z,100453.53
2023-10-23T10:19:13.393Z,100405.28
2023-10-23T10:21:49.568Z,100449.59
2023-10-23T10:24:18.737Z,100250.38
2023-10-23T10:26:48.069Z,100433.44
2023-10-23T10:29:15.867Z,100436.06
2023-10-23T10:32:11.121Z,100423.34
2023-10-23T10:34:55.361Z,100430.13
2023-10-23T10:37:27.144Z,100270.59
2023-10-23T10:40:05.865Z,100418.13
2023-10-23T10:42:37.847Z,100416.97
2023-10-23T10:45:20.589Z,100387.50
2023-10-23T10:47:50.879Z,100360.09
2023-10-23T10:50:34.154Z,100414.66
2023-10-23T10:53:04.586Z,100404.22
2023-10-23T10:55:33.282Z,100410.22
2023-10-23T10:58:02.900Z,100381.50
2023-10-23T11:00:31.573Z,100407.22
2023-10-23T11:02:59.686Z,100404.94
2023-10-23T11:05:27.604Z,100406.19
2023-10-23T11:07:55.723Z,100374.47
2023-10-23T11:10:23.839Z,100386.22
2023-10-23T11:12:52.435Z,100387.00
2023-10-23T11:15:21.583Z,100371.97
2023-10-23T11:17:49.430Z,100371.41
2023-10-23T11:20:17.887Z,100373.69
2023-10-23T11:22:46.652Z,100377.47
2023-10-23T11:25:16.616Z,100338.22
2023-10-23T11:27:44.432Z,100370.34
2023-10-23T11:30:12.734Z,100352.72
2023-10-23T11:32:41.991Z,100365.69
2023-10-23T11:35:10.337Z,100362.97
2023-10-23T11:37:42.217Z,100289.69
2023-10-23T11:40:11.624Z,100345.78
2023-10-23T11:42:48.435Z,100349.22
2023-10-23T11:45:18.216Z,100348.13
2023-10-23T11:47:48.178Z,100349.84
2023-10-23T11:50:16.222Z,100348.81
2023-10-23T11:52:46.386Z,100346.75
2023-10-23T11:55:16.297Z,100345.16
2023-10-23T11:57:47.725Z,100345.88
2023-10-23T12:00:17.343Z,100336.97
2023-10-23T12:02:48.009Z,100323.84
2023-10-23T12:05:18.030Z,100321.22
2023-10-23T12:07:48.492Z,100326.41
2023-10-23T12:10:18.128Z,100316.66
2023-10-23T12:12:47.148Z,100255.75
2023-10-23T12:15:16.559Z,100302.38
2023-10-23T12:17:44.960Z,100312.66
2023-10-23T12:20:17.237Z,100306.22
2023-10-23T12:22:47.075Z,100322.81
2023-10-23T12:25:17.305Z,100296.91
2023-10-23T12:27:45.228Z,100281.75
2023-10-23T12:30:16.429Z,100290.75
2023-10-23T12:33:11.604Z,100283.31
2023-10-23T12:35:38.894Z,100249.63
2023-10-23T12:38:07.027Z,100257.03
2023-10-23T12:40:37.054Z,100272.38
2023-10-23T12:43:05.656Z,100274.31
2023-10-23T12:45:33.534Z,100266.59
2023-10-23T12:48:01.425Z,100255.16
2023-10-23T12:50:30.066Z,100208.31
2023-10-23T12:52:59.317Z,100279.88
2023-10-23T12:55:27.115Z,100271.88
2023-10-23T12:57:55.046Z,100268.84
2023-10-23T13:00:22.786Z,100270.00
2023-10-23T13:02:50.565Z,100265.97
2023-10-23T13:05:18.328Z,100269.41
2023-10-23T13:07:46.115Z,100266.28
2023-10-23T13:10:15.191Z,100261.56
2023-10-23T13:12:42.922Z,100258.41
2023-10-23T13:15:10.766Z,100248.72
2023-10-23T13:17:38.467Z,100241.72
2023-10-23T13:21:29.563Z,100245.81
2023-10-23T13:22:55.422Z,100246.69
2023-10-23T13:25:24.595Z,100233.50
2023-10-23T13:27:52.393Z,100221.03
2023-10-23T13:30:20.111Z,100227.34
2023-10-23T13:32:47.934Z,100222.31
2023-10-23T13:35:16.497Z,100212.19
2023-10-23T13:37:44.247Z,100204.22
2023-10-23T13:40:12.980Z,100166.88
2023-10-23T13:42:42.181Z,100192.69
2023-10-23T13:45:11.002Z,100184.97
2023-10-23T13:47:38.874Z,100189.84
2023-10-23T13:50:07.621Z,100180.31
2023-10-23T13:52:35.334Z,100182.19
2023-10-23T13:55:03.958Z,100170.59
2023-10-23T13:57:31.710Z,100171.59
2023-10-23T14:00:00.733Z,100167.56
2023-10-23T14:02:28.527Z,100164.16
2023-10-23T14:04:57.165Z,100163.28
2023-10-23T14:07:24.930Z,100156.16
2023-10-23T14:09:53.107Z,100148.03
2023-10-23T14:12:21.294Z,100147.94
2023-10-23T14:14:49.236Z,100144.06
2023-10-23T14:17:18.441Z,99954.28
2023-10-23T14:19:48.537Z,99966.72
2023-10-23T14:22:17.133Z,100125.16
2023-10-23T14:24:45.102Z,100128.72
2023-10-23T14:27:12.962Z,100109.41
2023-10-23T14:29:41.060Z,100101.88
2023-10-23T14:32:09.066Z,100114.16
2023-10-23T14:34:38.130Z,100102.94
2023-10-23T14:37:05.816Z,100102.25
2023-10-23T14:39:33.771Z,100096.97
2023-10-23T14:42:01.451Z,100100.59
2023-10-23T14:44:30.411Z,100097.16
2023-10-23T14:46:58.256Z,100097.63
2023-10-23T14:49:26.647Z,100080.81
2023-10-23T14:51:56.024Z,100077.09
2023-10-23T14:54:23.978Z,100074.91
2023-10-23T14:56:53.253Z,100060.63
2023-10-23T14:59:22.847Z,100066.75
2023-10-23T15:01:50.705Z,100055.66
2023-10-23T15:04:18.811Z,100055.53
2023-10-23T15:06:46.599Z,100053.00
2023-10-23T15:09:15.650Z,100040.00
2023-10-23T15:11:43.415Z,100031.28
2023-10-23T15:14:11.458Z,100029.72
2023-10-23T15:16:39.638Z,100021.84
2023-10-23T15:19:07.445Z,100020.75
2023-10-23T15:21:35.184Z,100011.59
2023-10-23T15:24:02.912Z,99998.94
2023-10-23T15:26:31.906Z,100005.25
2023-10-23T15:28:59.641Z,99998.13
2023-10-23T15:31:27.427Z,99999.41
2023-10-23T15:33:55.292Z,99985.03
2023-10-23T15:36:23.010Z,99974.63
2023-10-23T15:38:50.829Z,99978.75
2023-10-23T15:41:18.541Z,99968.50
2023-10-23T15:43:52.453Z,99967.09
2023-10-23T15:46:20.798Z,99957.66
2023-10-23T15:48:48.613Z,99959.28
2023-10-23T15:51:16.901Z,99961.28
2023-10-23T15:53:44.636Z,99954.59
2023-10-23T15:56:12.446Z,99966.88
2023-10-23T15:58:40.180Z,99963.44
2023-10-23T16:01:10.418Z,99972.63
2023-10-23T16:03:38.422Z,99966.34
2023-10-23T16:06:09.170Z,99967.75
2023-10-23T16:08:38.499Z,99969.75
2023-10-23T16:11:07.125Z,99960.22
2023-10-23T16:13:38.100Z,99889.22
2023-10-23T16:16:07.091Z,99967.47
2023-10-23T16:18:44.302Z,99958.34
2023-10-23T16:21:13.863Z,99959.97
2023-10-23T16:23:41.612Z,99961.81
2023-10-23T16:26:09.426Z,99959.38
2023-10-23T16:28:37.179Z,99962.81
2023-10-23T16:31:05.163Z,99961.66
2023-10-23T16:33:33.825Z,99964.22
2023-10-23T16:36:02.931Z,99977.22
2023-10-23T16:38:30.651Z,99984.34
2023-10-23T16:40:58.307Z,99990.59
2023-10-23T16:43:26.124Z,99994.59
2023-10-23T16:45:53.876Z,99995.16
2023-10-23T16:48:21.868Z,99997.59
2023-10-23T16:50:49.623Z,99931.59
2023-10-23T16:53:19.801Z,99987.03
2023-10-23T16:55:53.169Z,99995.28
2023-10-23T16:58:24.396Z,99994.72
2023-10-23T17:00:53.575Z,99988.16
2023-10-23T17:03:21.830Z,99998.56
2023-10-23T17:05:49.774Z,99993.44
2023-10-23T17:08:18.873Z,99999.88
2023-10-23T17:10:46.560Z,100001.41
2023-10-23T17:13:14.364Z,99999.16
2023-10-23T17:15:45.416Z,99992.56
2023-10-23T17:18:13.232Z,99979.84
2023-10-23T17:20:44.929Z,99983.44
2023-10-23T17:23:13.097Z,99971.59
2023-10-23T17:25:42.736Z,99962.34
2023-10-23T17:28:10.471Z,99962.50
2023-10-23T17:30:38.348Z,99963.88
2023-10-23T17:33:08.033Z,99960.59
2023-10-23T17:35:36.031Z,99952.47
2023-10-23T17:38:04.976Z,99932.53
2023-10-23T17:40:37.386Z,99917.88
2023-10-23T17:43:07.081Z,99876.78
2023-10-23T17:45:35.534Z,99859.84
2023-10-23T17:48:11.874Z,99844.47
2023-10-23T17:50:42.153Z,99887.91
2023-10-23T17:53:12.483Z,99881.66
2023-10-23T17:55:41.591Z,99859.56
2023-10-23T17:58:12.592Z,99847.69
2023-10-23T18:00:45.834Z,99641.63
2023-10-23T18:03:19.151Z,99769.94
2023-10-23T18:06:01.812Z,99604.03
2023-10-23T18:08:40.849Z,99679.09
2023-10-23T18:11:08.796Z,99835.81
2023-10-23T18:13:37.980Z,99836.94
2023-10-23T18:16:06.479Z,99835.63
2023-10-23T18:18:34.314Z,99826.13
2023-10-23T18:21:02.161Z,99828.69
2023-10-23T18:23:29.959Z,99835.50
2023-10-23T18:26:00.609Z,99841.75
2023-10-23T18:28:29.095Z,99846.63
2023-10-23T18:31:01.803Z,99841.91
2023-10-23T18:33:30.428Z,99848.03
2023-10-23T18:36:02.159Z,99836.81
2023-10-23T18:38:30.488Z,99826.50
2023-10-23T18:40:58.358Z,99831.22
2023-10-23T18:43:28.243Z,99831.50
2023-10-23T18:45:58.270Z,99831.50
2023-10-23T18:48:26.299Z,99825.81
2023-10-23T18:51:01.015Z,99823.66
2023-10-23T18:53:29.335Z,99827.09
2023-10-23T18:55:57.006Z,99821.09
2023-10-23T18:58:24.925Z,99786.00
2023-10-23T19:00:53.545Z,99820.97
2023-10-23T19:03:22.863Z,99829.34
2023-10-23T19:05:53.664Z,99823.66
2023-10-23T19:08:22.581Z,99814.41
2023-10-23T19:10:50.774Z,99811.59
2023-10-23T19:13:18.525Z,99816.00
2023-10-23T19:15:46.282Z,99809.56
2023-10-23T19:18:14.094Z,99812.41
2023-10-23T19:20:43.172Z,99807.84
2023-10-23T19:23:11.015Z,99801.16
2023-10-23T19:25:38.746Z,99795.28
2023-10-23T19:28:06.626Z,99791.06
2023-10-23T19:30:34.461Z,99787.94
2023-10-23T19:33:02.755Z,99728.69
2023-10-23T19:35:31.625Z,99779.69
2023-10-23T19:38:01.311Z,99769.72
2023-10-23T19:40:29.773Z,99773.28
2023-10-23T19:43:04.569Z,99766.31
2023-10-23T19:45:32.926Z,99768.88
2023-10-23T19:48:01.219Z,99770.28
2023-10-23T19:50:29.631Z,99768.16
2023-10-23T19:53:01.985Z,99759.31
2023-10-23T19:55:43.591Z,99754.34
2023-10-23T19:58:14.320Z,99746.38
2023-10-23T20:00:42.158Z,99746.09
2023-10-23T20:03:09.959Z,99739.69
2023-10-23T20:05:38.248Z,99742.13
2023-10-23T20:08:07.511Z,99729.56
2023-10-23T20:10:35.329Z,99734.28
2023-10-23T20:13:05.683Z,99733.13
2023-10-23T20:15:33.432Z,99721.47
2023-10-23T20:18:01.138Z,99724.16
2023-10-23T20:20:29.028Z,99725.31
2023-10-23T20:22:56.700Z,99720.78
2023-10-23T20:25:25.880Z,99724.47
2023-10-23T20:27:53.611Z,99717.34
2023-10-23T20:30:21.286Z,99715.22
2023-10-23T20:32:49.530Z,99706.53
2023-10-23T20:35:17.497Z,99696.16
2023-10-23T20:37:45.705Z,99692.47
2023-10-23T20:40:14.146Z,99692.88
2023-10-23T20:42:43.242Z,99689.47
2023-10-23T20:45:13.097Z,99674.66
2023-10-23T20:47:41.190Z,99671.97
2023-10-23T20:50:09.869Z,99674.25
2023-10-23T20:52:37.617Z,99677.38
2023-10-23T20:55:06.507Z,99670.97
2023-10-23T20:57:34.292Z,99672.69
2023-10-23T21:00:07.208Z,99657.19
2023-10-23T21:02:34.931Z,99666.13
2023-10-23T21:05:02.653Z,99654.47
2023-10-23T21:07:30.458Z,99647.78
2023-10-23T21:09:58.158Z,99646.22
2023-10-23T21:12:27.101Z,99631.84
2023-10-23T21:14:55.333Z,99635.41
2023-10-23T21:17:24.375Z,99627.88
2023-10-23T21:19:52.118Z,99623.88
2023-10-23T21:22:19.899Z,99622.63
2023-10-23T21:24:47.930Z,99615.66
2023-10-23T21:27:16.421Z,99617.06
2023-10-23T21:29:45.175Z,99597.00
2023-10-23T21:32:13.070Z,99598.13
2023-10-23T21:34:42.231Z,99580.22
2023-10-23T21:37:10.014Z,99584.06
2023-10-23T21:39:37.852Z,99580.22
2023-10-23T21:42:06.065Z,99575.25
2023-10-23T21:44:33.738Z,99570.97
2023-10-23T21:47:01.512Z,99544.38
2023-10-23T21:49:29.335Z,99575.81
2023-10-23T21:51:59.180Z,99573.09
2023-10-23T21:54:27.581Z,99563.56
2023-10-23T21:57:22.017Z,99558.91
2023-10-23T21:59:44.046Z,99567.31
2023-10-23T22:02:12.652Z,99559.91
2023-10-23T22:04:41.177Z,99566.69
2023-10-23T22:07:11.306Z,99567.03
2023-10-23T22:09:39.661Z,99567.88
2023-10-23T22:12:09.027Z,99568.56
2023-10-23T22:14:37.194Z,99574.28
2023-10-23T22:17:05.377Z,99568.56
2023-10-23T22:19:33.184Z,99566.69
2023-10-23T22:22:02.099Z,99556.88
2023-10-23T22:24:31.141Z,99551.66
2023-10-23T22:26:58.869Z,99545.22
2023-10-23T22:29:26.534Z,99547.38
2023-10-23T22:31:56.393Z,99545.22
2023-10-23T22:34:24.260Z,99531.03
2023-10-23T22:37:55.721Z,99533.88
2023-10-23T22:39:40.998Z,99529.34
2023-10-23T22:42:08.864Z,99538.81
2023-10-23T22:44:36.507Z,99538.28
2023-10-23T22:47:04.381Z,99533.44
2023-10-23T22:49:32.850Z,99532.56
2023-10-23T22:52:00.969Z,99531.56
2023-10-23T22:54:29.267Z,99524.03
2023-10-23T22:57:04.036Z,99512.56
2023-10-23T22:59:32.209Z,99512.13
2023-10-23T23:02:01.574Z,99510.28
2023-10-23T23:04:30.003Z,99507.25
2023-10-23T23:07:00.697Z,99510.09
2023-10-23T23:09:29.009Z,99500.84
2023-10-23T23:11:58.928Z,99504.97
2023-10-23T23:14:27.081Z,99501.84
2023-10-23T23:17:01.364Z,99488.06
2023-10-23T23:19:32.108Z,99492.91
2023-10-23T23:22:06.531Z,99491.03
2023-10-23T23:24:34.335Z,99482.22
2023-10-23T23:27:03.492Z,99490.34
2023-10-23T23:29:31.195Z,99482.94
2023-10-23T23:31:59.117Z,99489.34
2023-10-23T23:34:26.931Z,99483.38
2023-10-23T23:36:54.839Z,99462.38
2023-10-23T23:39:22.670Z,99494.03
2023-10-23T23:41:50.423Z,99493.19
2023-10-23T23:44:19.510Z,99481.38
2023-10-23T23:46:47.298Z,99485.53
2023-10-23T23:49:15.881Z,99486.97
2023-10-23T23:51:43.598Z,99493.59
2023-10-23T23:54:11.330Z,99490.75
2023-10-23T23:56:39.013Z,99487.81
2023-10-23T23:59:06.702Z,99489.22
